sensor_id;sensor_type;location;lat;lon;timestamp;pressure;altitude;pressure_sealevel;temperature;humidity
21395;BME280;10858;42.714;23.180;2023-05-07T00:00:48;94606.69;;;8.82;86.38
21395;BME280;10858;42.714;23.180;2023-05-07T00:03:15;94617.97;;;8.62;86.50
21395;BME280;10858;42.714;23.180;2023-05-07T00:05:41;94620.47;;;8.41;86.52
21395;BME280;10858;42.714;23.180;2023-05-07T00:08:08;94616.72;;;8.33;86.68
21395;BME280;10858;42.714;23.180;2023-05-07T00:10:34;94622.00;;;8.33;87.11
21395;BME280;10858;42.714;23.180;2023-05-07T00:13:00;94618.03;;;8.27;87.27
21395;BME280;10858;42.714;23.180;2023-05-07T00:15:26;94611.34;;;8.22;87.02
21395;BME280;10858;42.714;23.180;2023-05-07T00:17:53;94611.72;;;8.17;86.79
21395;BME280;10858;42.714;23.180;2023-05-07T00:20:20;94611.47;;;8.20;87.48
21395;BME280;10858;42.714;23.180;2023-05-07T00:22:46;94613.97;;;8.34;87.59
21395;BME280;10858;42.714;23.180;2023-05-07T00:25:12;94612.28;;;8.33;87.05
21395;BME280;10858;42.714;23.180;2023-05-07T00:27:38;94615.09;;;8.19;86.91
21395;BME280;10858;42.714;23.180;2023-05-07T00:30:05;94618.53;;;8.09;87.17
21395;BME280;10858;42.714;23.180;2023-05-07T00:32:32;94620.06;;;8.00;87.47
21395;BME280;10858;42.714;23.180;2023-05-07T00:34:58;94611.47;;;8.09;87.93
21395;BME280;10858;42.714;23.180;2023-05-07T00:37:24;94615.78;;;8.10;87.76
21395;BME280;10858;42.714;23.180;2023-05-07T00:39:51;94610.88;;;8.17;87.14
21395;BME280;10858;42.714;23.180;2023-05-07T00:42:17;94613.28;;;8.20;86.68
21395;BME280;10858;42.714;23.180;2023-05-07T00:44:44;94617.19;;;8.03;86.55
21395;BME280;10858;42.714;23.180;2023-05-07T00:47:10;94620.56;;;8.05;87.18
21395;BME280;10858;42.714;23.180;2023-05-07T00:49:44;94617.19;;;8.03;88.02
21395;BME280;10858;42.714;23.180;2023-05-07T00:52:13;94616.75;;;8.09;87.97
21395;BME280;10858;42.714;23.180;2023-05-07T00:54:41;94617.00;;;8.17;88.12
21395;BME280;10858;42.714;23.180;2023-05-07T00:57:07;94620.13;;;8.11;87.01
21395;BME280;10858;42.714;23.180;2023-05-07T00:59:34;94623.94;;;8.07;86.49
21395;BME280;10858;42.714;23.180;2023-05-07T01:02:01;94616.53;;;7.89;85.91
21395;BME280;10858;42.714;23.180;2023-05-07T01:04:27;94623.56;;;7.77;86.29
21395;BME280;10858;42.714;23.180;2023-05-07T01:06:55;94620.94;;;7.77;86.91
21395;BME280;10858;42.714;23.180;2023-05-07T01:09:23;94623.94;;;7.84;87.83
21395;BME280;10858;42.714;23.180;2023-05-07T01:11:50;94628.22;;;7.97;87.00
21395;BME280;10858;42.714;23.180;2023-05-07T01:14:18;94616.09;;;7.95;87.15
21395;BME280;10858;42.714;23.180;2023-05-07T01:16:44;94613.38;;;7.84;87.26
21395;BME280;10858;42.714;23.180;2023-05-07T01:19:12;94611.09;;;7.79;87.44
21395;BME280;10858;42.714;23.180;2023-05-07T01:21:46;94616.59;;;7.76;87.42
21395;BME280;10858;42.714;23.180;2023-05-07T01:24:14;94617.66;;;7.73;86.90
21395;BME280;10858;42.714;23.180;2023-05-07T01:26:41;94624.78;;;7.84;86.53
21395;BME280;10858;42.714;23.180;2023-05-07T01:29:08;94625.03;;;7.81;86.17
21395;BME280;10858;42.714;23.180;2023-05-07T01:31:35;94625.25;;;7.78;86.39
21395;BME280;10858;42.714;23.180;2023-05-07T01:34:02;94618.66;;;7.84;86.12
21395;BME280;10858;42.714;23.180;2023-05-07T01:36:30;94626.66;;;7.71;85.87
21395;BME280;10858;42.714;23.180;2023-05-07T01:38:58;94620.38;;;7.61;86.79
21395;BME280;10858;42.714;23.180;2023-05-07T01:41:25;94620.69;;;7.56;86.51
21395;BME280;10858;42.714;23.180;2023-05-07T01:43:52;94620.50;;;7.59;86.77
21395;BME280;10858;42.714;23.180;2023-05-07T01:46:20;94617.72;;;7.61;85.85
21395;BME280;10858;42.714;23.180;2023-05-07T01:48:46;94610.97;;;7.57;86.91
21395;BME280;10858;42.714;23.180;2023-05-07T01:51:13;94618.78;;;7.58;86.92
21395;BME280;10858;42.714;23.180;2023-05-07T01:53:39;94622.00;;;7.51;87.34
21395;BME280;10858;42.714;23.180;2023-05-07T01:56:07;94614.81;;;7.53;87.21
21395;BME280;10858;42.714;23.180;2023-05-07T01:58:34;94607.38;;;7.58;86.87
21395;BME280;10858;42.714;23.180;2023-05-07T02:01:00;94605.03;;;7.66;86.41
21395;BME280;10858;42.714;23.180;2023-05-07T02:03:26;94597.00;;;7.67;86.21
21395;BME280;10858;42.714;23.180;2023-05-07T02:05:53;94583.88;;;7.90;86.40
21395;BME280;10858;42.714;23.180;2023-05-07T02:08:19;94593.94;;;7.85;85.76
21395;BME280;10858;42.714;23.180;2023-05-07T02:10:45;94591.09;;;7.64;85.58
21395;BME280;10858;42.714;23.180;2023-05-07T02:13:11;94594.25;;;7.45;86.24
21395;BME280;10858;42.714;23.180;2023-05-07T02:15:38;94589.31;;;7.41;86.66
21395;BME280;10858;42.714;23.180;2023-05-07T02:18:05;94593.13;;;7.37;86.50
21395;BME280;10858;42.714;23.180;2023-05-07T02:20:32;94602.19;;;7.33;85.98
21395;BME280;10858;42.714;23.180;2023-05-07T02:22:59;94598.25;;;7.15;86.55
21395;BME280;10858;42.714;23.180;2023-05-07T02:25:26;94595.03;;;7.35;86.19
21395;BME280;10858;42.714;23.180;2023-05-07T02:27:52;94598.59;;;7.34;86.51
21395;BME280;10858;42.714;23.180;2023-05-07T02:30:18;94601.31;;;7.45;86.09
21395;BME280;10858;42.714;23.180;2023-05-07T02:32:47;94606.19;;;7.38;86.65
21395;BME280;10858;42.714;23.180;2023-05-07T02:35:13;94597.25;;;7.52;86.18
21395;BME280;10858;42.714;23.180;2023-05-07T02:37:39;94598.50;;;7.59;85.46
21395;BME280;10858;42.714;23.180;2023-05-07T02:40:06;94594.63;;;7.52;85.72
21395;BME280;10858;42.714;23.180;2023-05-07T02:42:32;94607.22;;;7.48;86.20
21395;BME280;10858;42.714;23.180;2023-05-07T02:44:59;94598.78;;;7.43;85.80
21395;BME280;10858;42.714;23.180;2023-05-07T02:47:25;94594.56;;;7.41;85.94
21395;BME280;10858;42.714;23.180;2023-05-07T02:49:55;94601.19;;;7.46;85.94
21395;BME280;10858;42.714;23.180;2023-05-07T02:52:21;94599.56;;;7.56;86.22
21395;BME280;10858;42.714;23.180;2023-05-07T02:54:48;94599.41;;;7.47;86.13
21395;BME280;10858;42.714;23.180;2023-05-07T02:57:14;94601.38;;;7.56;86.21
21395;BME280;10858;42.714;23.180;2023-05-07T02:59:41;94601.75;;;7.39;85.97
21395;BME280;10858;42.714;23.180;2023-05-07T03:02:07;94600.06;;;7.38;85.82
21395;BME280;10858;42.714;23.180;2023-05-07T03:04:33;94607.81;;;7.52;86.35
21395;BME280;10858;42.714;23.180;2023-05-07T03:06:59;94608.09;;;7.36;85.74
21395;BME280;10858;42.714;23.180;2023-05-07T03:09:26;94612.47;;;7.25;86.37
21395;BME280;10858;42.714;23.180;2023-05-07T03:11:52;94608.81;;;7.15;86.17
21395;BME280;10858;42.714;23.180;2023-05-07T03:14:18;94611.94;;;7.20;85.44
21395;BME280;10858;42.714;23.180;2023-05-07T03:16:44;94612.91;;;7.19;85.16
21395;BME280;10858;42.714;23.180;2023-05-07T03:19:11;94612.16;;;7.17;85.36
21395;BME280;10858;42.714;23.180;2023-05-07T03:21:37;94617.03;;;7.10;85.59
21395;BME280;10858;42.714;23.180;2023-05-07T03:24:03;94615.16;;;7.36;86.31
21395;BME280;10858;42.714;23.180;2023-05-07T03:26:30;94617.34;;;7.42;86.39
21395;BME280;10858;42.714;23.180;2023-05-07T03:28:56;94623.31;;;7.33;87.09
21395;BME280;10858;42.714;23.180;2023-05-07T03:31:22;94627.47;;;7.48;86.28
21395;BME280;10858;42.714;23.180;2023-05-07T03:33:53;94625.53;;;7.62;86.88
21395;BME280;10858;42.714;23.180;2023-05-07T03:36:20;94630.03;;;7.49;86.09
21395;BME280;10858;42.714;23.180;2023-05-07T03:38:47;94624.94;;;7.46;86.31
21395;BME280;10858;42.714;23.180;2023-05-07T03:41:14;94630.78;;;7.39;86.15
21395;BME280;10858;42.714;23.180;2023-05-07T03:43:40;94626.41;;;7.50;86.36
21395;BME280;10858;42.714;23.180;2023-05-07T03:46:07;94629.34;;;7.58;86.70
21395;BME280;10858;42.714;23.180;2023-05-07T03:48:33;94636.22;;;7.61;86.10
21395;BME280;10858;42.714;23.180;2023-05-07T03:50:59;94638.00;;;7.60;87.01
21395;BME280;10858;42.714;23.180;2023-05-07T03:53:26;94639.69;;;7.61;86.91
21395;BME280;10858;42.714;23.180;2023-05-07T03:55:52;94640.47;;;7.74;87.27
21395;BME280;10858;42.714;23.180;2023-05-07T03:58:19;94642.94;;;7.89;87.22
21395;BME280;10858;42.714;23.180;2023-05-07T04:00:45;94645.81;;;8.09;87.29
21395;BME280;10858;42.714;23.180;2023-05-07T04:03:11;94646.66;;;8.44;87.58
21395;BME280;10858;42.714;23.180;2023-05-07T04:05:37;94646.88;;;8.98;88.04
21395;BME280;10858;42.714;23.180;2023-05-07T04:08:04;94655.50;;;9.67;87.74
21395;BME280;10858;42.714;23.180;2023-05-07T04:10:31;94652.81;;;10.32;87.56
21395;BME280;10858;42.714;23.180;2023-05-07T04:12:57;94655.31;;;11.36;88.55
21395;BME280;10858;42.714;23.180;2023-05-07T04:15:24;94655.16;;;12.65;88.42
21395;BME280;10858;42.714;23.180;2023-05-07T04:17:50;94669.66;;;13.74;85.54
21395;BME280;10858;42.714;23.180;2023-05-07T04:20:17;94669.28;;;14.41;79.72
21395;BME280;10858;42.714;23.180;2023-05-07T04:22:43;94671.59;;;14.89;76.15
21395;BME280;10858;42.714;23.180;2023-05-07T04:25:10;94669.66;;;16.01;72.31
21395;BME280;10858;42.714;23.180;2023-05-07T04:27:36;94683.78;;;16.53;69.37
21395;BME280;10858;42.714;23.180;2023-05-07T04:30:04;94683.69;;;17.11;66.96
21395;BME280;10858;42.714;23.180;2023-05-07T04:32:30;94693.22;;;17.62;64.58
21395;BME280;10858;42.714;23.180;2023-05-07T04:34:57;94683.06;;;18.82;61.74
21395;BME280;10858;42.714;23.180;2023-05-07T04:37:24;94684.03;;;19.34;58.51
21395;BME280;10858;42.714;23.180;2023-05-07T04:39:51;94689.22;;;20.54;59.13
21395;BME280;10858;42.714;23.180;2023-05-07T04:42:17;94690.63;;;21.63;56.38
21395;BME280;10858;42.714;23.180;2023-05-07T04:44:45;94689.53;;;22.07;54.04
21395;BME280;10858;42.714;23.180;2023-05-07T04:47:11;94690.81;;;22.79;52.38
21395;BME280;10858;42.714;23.180;2023-05-07T04:49:38;94686.56;;;23.11;47.63
21395;BME280;10858;42.714;23.180;2023-05-07T04:52:05;94685.22;;;23.93;43.50
21395;BME280;10858;42.714;23.180;2023-05-07T04:54:31;94683.16;;;25.05;41.84
21395;BME280;10858;42.714;23.180;2023-05-07T04:56:57;94679.13;;;25.14;40.72
21395;BME280;10858;42.714;23.180;2023-05-07T04:59:24;94680.88;;;26.27;40.45
21395;BME280;10858;42.714;23.180;2023-05-07T05:01:50;94687.16;;;26.88;39.63
21395;BME280;10858;42.714;23.180;2023-05-07T05:04:16;94682.59;;;27.18;35.80
21395;BME280;10858;42.714;23.180;2023-05-07T05:06:42;94687.81;;;27.20;35.24
21395;BME280;10858;42.714;23.180;2023-05-07T05:09:08;94687.94;;;26.77;35.24
21395;BME280;10858;42.714;23.180;2023-05-07T05:11:34;94686.22;;;27.60;35.21
21395;BME280;10858;42.714;23.180;2023-05-07T05:14:01;94681.56;;;27.90;33.63
21395;BME280;10858;42.714;23.180;2023-05-07T05:16:27;94677.41;;;28.17;31.49
21395;BME280;10858;42.714;23.180;2023-05-07T05:18:54;94685.56;;;26.80;34.30
21395;BME280;10858;42.714;23.180;2023-05-07T05:21:21;94685.19;;;26.09;35.96
21395;BME280;10858;42.714;23.180;2023-05-07T05:23:47;94688.41;;;26.00;35.03
21395;BME280;10858;42.714;23.180;2023-05-07T05:26:13;94679.38;;;26.91;35.08
21395;BME280;10858;42.714;23.180;2023-05-07T05:28:39;94675.75;;;27.75;33.65
21395;BME280;10858;42.714;23.180;2023-05-07T05:31:06;94680.47;;;28.21;31.72
21395;BME280;10858;42.714;23.180;2023-05-07T05:33:32;94680.09;;;29.10;30.87
21395;BME280;10858;42.714;23.180;2023-05-07T05:35:58;94686.69;;;29.93;29.41
21395;BME280;10858;42.714;23.180;2023-05-07T05:38:25;94685.44;;;29.28;29.42
21395;BME280;10858;42.714;23.180;2023-05-07T05:40:51;94683.34;;;28.61;30.81
21395;BME280;10858;42.714;23.180;2023-05-07T05:43:17;94687.84;;;28.78;30.29
21395;BME280;10858;42.714;23.180;2023-05-07T05:45:44;94681.41;;;29.07;30.15
21395;BME280;10858;42.714;23.180;2023-05-07T05:48:10;94682.19;;;29.59;31.10
21395;BME280;10858;42.714;23.180;2023-05-07T05:50:36;94686.97;;;30.25;28.04
21395;BME280;10858;42.714;23.180;2023-05-07T05:53:03;94682.09;;;29.82;29.58
21395;BME280;10858;42.714;23.180;2023-05-07T05:55:29;94685.81;;;29.76;29.02
21395;BME280;10858;42.714;23.180;2023-05-07T05:57:56;94689.59;;;28.03;31.26
21395;BME280;10858;42.714;23.180;2023-05-07T06:00:23;94689.34;;;29.09;29.25
21395;BME280;10858;42.714;23.180;2023-05-07T06:02:49;94686.13;;;29.91;28.75
21395;BME280;10858;42.714;23.180;2023-05-07T06:05:16;94681.38;;;29.59;29.39
21395;BME280;10858;42.714;23.180;2023-05-07T06:07:42;94683.91;;;30.21;27.76
21395;BME280;10858;42.714;23.180;2023-05-07T06:10:09;94677.16;;;28.30;30.62
21395;BME280;10858;42.714;23.180;2023-05-07T06:12:35;94689.22;;;30.45;28.52
21395;BME280;10858;42.714;23.180;2023-05-07T06:15:01;94678.78;;;30.58;27.61
21395;BME280;10858;42.714;23.180;2023-05-07T06:17:27;94684.34;;;29.29;29.37
21395;BME280;10858;42.714;23.180;2023-05-07T06:19:54;94686.06;;;30.53;27.76
21395;BME280;10858;42.714;23.180;2023-05-07T06:22:20;94685.81;;;30.21;27.34
21395;BME280;10858;42.714;23.180;2023-05-07T06:24:46;94672.44;;;29.35;28.99
21395;BME280;10858;42.714;23.180;2023-05-07T06:27:12;94672.56;;;27.48;32.19
21395;BME280;10858;42.714;23.180;2023-05-07T06:29:39;94664.16;;;28.55;30.55
21395;BME280;10858;42.714;23.180;2023-05-07T06:32:13;94666.81;;;29.42;30.06
21395;BME280;10858;42.714;23.180;2023-05-07T06:34:40;94662.88;;;27.94;31.21
21395;BME280;10858;42.714;23.180;2023-05-07T06:37:06;94657.31;;;28.00;33.02
21395;BME280;10858;42.714;23.180;2023-05-07T06:39:33;94656.25;;;28.01;30.56
21395;BME280;10858;42.714;23.180;2023-05-07T06:42:00;94656.91;;;27.73;31.59
21395;BME280;10858;42.714;23.180;2023-05-07T06:44:27;94652.84;;;27.17;31.50
21395;BME280;10858;42.714;23.180;2023-05-07T06:46:53;94653.03;;;27.04;31.88
21395;BME280;10858;42.714;23.180;2023-05-07T06:49:20;94650.16;;;26.62;33.05
21395;BME280;10858;42.714;23.180;2023-05-07T06:51:46;94640.25;;;28.86;30.04
21395;BME280;10858;42.714;23.180;2023-05-07T06:54:12;94644.03;;;28.85;30.38
21395;BME280;10858;42.714;23.180;2023-05-07T06:56:39;94651.34;;;29.75;30.27
21395;BME280;10858;42.714;23.180;2023-05-07T06:59:05;94650.63;;;31.01;28.46
21395;BME280;10858;42.714;23.180;2023-05-07T07:01:32;94654.00;;;32.00;26.31
21395;BME280;10858;42.714;23.180;2023-05-07T07:03:58;94645.81;;;31.08;27.03
21395;BME280;10858;42.714;23.180;2023-05-07T07:06:24;94646.06;;;29.29;28.38
21395;BME280;10858;42.714;23.180;2023-05-07T07:08:51;94638.84;;;29.11;29.45
21395;BME280;10858;42.714;23.180;2023-05-07T07:11:17;94640.91;;;29.44;29.61
21395;BME280;10858;42.714;23.180;2023-05-07T07:13:44;94639.97;;;28.99;32.01
21395;BME280;10858;42.714;23.180;2023-05-07T07:16:10;94640.25;;;28.86;29.40
21395;BME280;10858;42.714;23.180;2023-05-07T07:18:36;94640.25;;;28.86;29.92
21395;BME280;10858;42.714;23.180;2023-05-07T07:21:03;94643.78;;;29.37;29.81
21395;BME280;10858;42.714;23.180;2023-05-07T07:23:29;94645.50;;;30.00;28.65
21395;BME280;10858;42.714;23.180;2023-05-07T07:25:55;94642.13;;;28.85;30.33
21395;BME280;10858;42.714;23.180;2023-05-07T07:28:22;94636.81;;;29.58;29.93
21395;BME280;10858;42.714;23.180;2023-05-07T07:30:48;94636.44;;;28.40;30.72
21395;BME280;10858;42.714;23.180;2023-05-07T07:33:14;94638.22;;;28.81;30.95
21395;BME280;10858;42.714;23.180;2023-05-07T07:35:40;94644.00;;;30.09;28.84
21395;BME280;10858;42.714;23.180;2023-05-07T07:38:07;94642.91;;;29.93;29.60
21395;BME280;10858;42.714;23.180;2023-05-07T07:40:35;94646.81;;;30.64;29.55
21395;BME280;10858;42.714;23.180;2023-05-07T07:43:01;94647.25;;;29.33;30.13
21395;BME280;10858;42.714;23.180;2023-05-07T07:45:27;94647.53;;;29.76;29.93
21395;BME280;10858;42.714;23.180;2023-05-07T07:47:54;94646.63;;;30.87;28.95
21395;BME280;10858;42.714;23.180;2023-05-07T07:50:20;94646.84;;;29.69;28.85
21395;BME280;10858;42.714;23.180;2023-05-07T07:52:47;94647.22;;;28.93;29.75
21395;BME280;10858;42.714;23.180;2023-05-07T07:55:13;94646.25;;;29.39;30.32
21395;BME280;10858;42.714;23.180;2023-05-07T07:57:43;94653.19;;;30.03;28.36
21395;BME280;10858;42.714;23.180;2023-05-07T08:00:10;94644.31;;;31.00;27.58
21395;BME280;10858;42.714;23.180;2023-05-07T08:02:36;94642.78;;;30.33;28.68
21395;BME280;10858;42.714;23.180;2023-05-07T08:05:03;94634.66;;;30.38;28.76
21395;BME280;10858;42.714;23.180;2023-05-07T08:07:29;94636.50;;;29.43;30.95
21395;BME280;10858;42.714;23.180;2023-05-07T08:09:56;94634.00;;;31.08;28.00
21395;BME280;10858;42.714;23.180;2023-05-07T08:12:22;94644.53;;;30.94;27.05
21395;BME280;10858;42.714;23.180;2023-05-07T08:14:48;94630.09;;;30.82;29.60
21395;BME280;10858;42.714;23.180;2023-05-07T08:17:15;94636.94;;;30.13;29.74
21395;BME280;10858;42.714;23.180;2023-05-07T08:19:42;94623.28;;;28.61;32.79
21395;BME280;10858;42.714;23.180;2023-05-07T08:22:09;94626.38;;;28.64;31.37
21395;BME280;10858;42.714;23.180;2023-05-07T08:24:36;94624.28;;;29.06;28.30
21395;BME280;10858;42.714;23.180;2023-05-07T08:27:03;94622.44;;;28.02;31.38
21395;BME280;10858;42.714;23.180;2023-05-07T08:29:29;94626.84;;;28.61;32.05
21395;BME280;10858;42.714;23.180;2023-05-07T08:31:55;94619.25;;;29.26;29.82
21395;BME280;10858;42.714;23.180;2023-05-07T08:34:22;94614.56;;;29.38;29.36
21395;BME280;10858;42.714;23.180;2023-05-07T08:36:49;94608.06;;;28.76;30.38
21395;BME280;10858;42.714;23.180;2023-05-07T08:39:18;94612.28;;;28.55;31.30
21395;BME280;10858;42.714;23.180;2023-05-07T08:41:48;94608.91;;;29.28;29.26
21395;BME280;10858;42.714;23.180;2023-05-07T08:44:17;94609.34;;;29.53;29.46
21395;BME280;10858;42.714;23.180;2023-05-07T08:46:47;94607.72;;;29.52;28.67
21395;BME280;10858;42.714;23.180;2023-05-07T08:49:15;94611.81;;;29.38;29.93
21395;BME280;10858;42.714;23.180;2023-05-07T08:51:42;94603.09;;;28.73;30.63
21395;BME280;10858;42.714;23.180;2023-05-07T08:54:09;94596.66;;;28.79;30.64
21395;BME280;10858;42.714;23.180;2023-05-07T08:56:36;94597.81;;;30.29;30.55
21395;BME280;10858;42.714;23.180;2023-05-07T08:59:03;94600.47;;;29.91;29.25
21395;BME280;10858;42.714;23.180;2023-05-07T09:01:29;94597.56;;;29.81;29.07
21395;BME280;10858;42.714;23.180;2023-05-07T09:03:57;94590.88;;;29.44;29.96
21395;BME280;10858;42.714;23.180;2023-05-07T09:06:23;94592.00;;;30.26;28.56
21395;BME280;10858;42.714;23.180;2023-05-07T09:08:51;94588.41;;;31.45;26.71
21395;BME280;10858;42.714;23.180;2023-05-07T09:11:23;94584.53;;;31.19;27.09
21395;BME280;10858;42.714;23.180;2023-05-07T09:13:56;94584.72;;;29.81;30.05
21395;BME280;10858;42.714;23.180;2023-05-07T09:16:24;94581.31;;;31.27;27.69
21395;BME280;10858;42.714;23.180;2023-05-07T09:18:54;94578.34;;;30.64;25.93
21395;BME280;10858;42.714;23.180;2023-05-07T09:21:21;94584.19;;;29.68;27.15
21395;BME280;10858;42.714;23.180;2023-05-07T09:23:52;94585.44;;;28.41;28.47
21395;BME280;10858;42.714;23.180;2023-05-07T09:26:21;94574.19;;;28.89;29.06
21395;BME280;10858;42.714;23.180;2023-05-07T09:28:47;94577.94;;;28.48;27.16
21395;BME280;10858;42.714;23.180;2023-05-07T09:31:13;94568.25;;;28.17;29.52
21395;BME280;10858;42.714;23.180;2023-05-07T09:33:40;94579.91;;;27.60;29.79
21395;BME280;10858;42.714;23.180;2023-05-07T09:36:08;94570.53;;;28.83;28.44
21395;BME280;10858;42.714;23.180;2023-05-07T09:38:35;94575.56;;;30.09;27.67
21395;BME280;10858;42.714;23.180;2023-05-07T09:41:11;94572.78;;;32.04;26.46
21395;BME280;10858;42.714;23.180;2023-05-07T09:43:38;94558.78;;;32.89;25.40
21395;BME280;10858;42.714;23.180;2023-05-07T09:46:11;94573.59;;;34.90;22.66
21395;BME280;10858;42.714;23.180;2023-05-07T09:48:39;94567.56;;;34.78;21.21
21395;BME280;10858;42.714;23.180;2023-05-07T09:51:29;94567.66;;;34.03;21.78
21395;BME280;10858;42.714;23.180;2023-05-07T09:53:57;94558.28;;;34.49;20.46
21395;BME280;10858;42.714;23.180;2023-05-07T09:56:26;94556.56;;;33.58;21.88
21395;BME280;10858;42.714;23.180;2023-05-07T09:58:54;94550.50;;;32.79;23.91
21395;BME280;10858;42.714;23.180;2023-05-07T10:01:22;94547.63;;;31.53;23.37
21395;BME280;10858;42.714;23.180;2023-05-07T10:03:50;94542.91;;;30.79;23.23
21395;BME280;10858;42.714;23.180;2023-05-07T10:06:17;94546.50;;;31.01;24.04
21395;BME280;10858;42.714;23.180;2023-05-07T10:08:43;94538.09;;;31.34;24.42
21395;BME280;10858;42.714;23.180;2023-05-07T10:11:10;94540.97;;;31.44;23.88
21395;BME280;10858;42.714;23.180;2023-05-07T10:13:37;94539.25;;;30.30;25.53
21395;BME280;10858;42.714;23.180;2023-05-07T10:16:04;94533.09;;;31.04;25.59
21395;BME280;10858;42.714;23.180;2023-05-07T10:18:33;94535.25;;;30.38;26.71
21395;BME280;10858;42.714;23.180;2023-05-07T10:21:23;94531.88;;;31.17;25.11
21395;BME280;10858;42.714;23.180;2023-05-07T10:24:03;94523.41;;;30.54;24.96
21395;BME280;10858;42.714;23.180;2023-05-07T10:26:33;94529.22;;;31.27;25.58
21395;BME280;10858;42.714;23.180;2023-05-07T10:29:07;94521.56;;;31.82;23.54
21395;BME280;10858;42.714;23.180;2023-05-07T10:32:02;94518.50;;;32.11;21.94
21395;BME280;10858;42.714;23.180;2023-05-07T10:34:35;94507.59;;;31.57;23.11
21395;BME280;10858;42.714;23.180;2023-05-07T10:37:03;94505.75;;;31.36;24.61
21395;BME280;10858;42.714;23.180;2023-05-07T10:39:30;94495.31;;;32.38;23.15
21395;BME280;10858;42.714;23.180;2023-05-07T10:41:57;94501.47;;;33.22;20.48
21395;BME280;10858;42.714;23.180;2023-05-07T10:44:32;94504.63;;;32.32;21.94
21395;BME280;10858;42.714;23.180;2023-05-07T10:47:12;94503.34;;;33.07;21.41
21395;BME280;10858;42.714;23.180;2023-05-07T10:54:45;94502.84;;;33.25;22.55
21395;BME280;10858;42.714;23.180;2023-05-07T10:57:36;94493.13;;;32.97;20.52
21395;BME280;10858;42.714;23.180;2023-05-07T11:00:03;94489.84;;;31.97;21.02
21395;BME280;10858;42.714;23.180;2023-05-07T11:05:26;94494.56;;;33.20;21.41
21395;BME280;10858;42.714;23.180;2023-05-07T11:08:00;94504.28;;;33.68;21.26
21395;BME280;10858;42.714;23.180;2023-05-07T11:13:41;94501.75;;;34.42;20.56
21395;BME280;10858;42.714;23.180;2023-05-07T11:16:15;94500.69;;;33.67;23.69
21395;BME280;10858;42.714;23.180;2023-05-07T11:18:50;94490.78;;;32.17;21.25
21395;BME280;10858;42.714;23.180;2023-05-07T11:24:03;94480.88;;;31.74;23.54
21395;BME280;10858;42.714;23.180;2023-05-07T11:26:41;94467.03;;;31.59;22.06
21395;BME280;10858;42.714;23.180;2023-05-07T11:29:17;94475.59;;;31.10;23.52
21395;BME280;10858;42.714;23.180;2023-05-07T11:31:48;94469.81;;;30.36;23.08
21395;BME280;10858;42.714;23.180;2023-05-07T11:34:15;94467.31;;;30.56;21.90
21395;BME280;10858;42.714;23.180;2023-05-07T11:36:44;94467.78;;;30.96;22.34
21395;BME280;10858;42.714;23.180;2023-05-07T11:39:28;94473.47;;;30.90;22.44
21395;BME280;10858;42.714;23.180;2023-05-07T11:41:55;94459.34;;;31.61;24.05
21395;BME280;10858;42.714;23.180;2023-05-07T11:44:21;94462.97;;;30.60;23.36
21395;BME280;10858;42.714;23.180;2023-05-07T11:46:48;94466.06;;;29.87;23.93
21395;BME280;10858;42.714;23.180;2023-05-07T11:49:14;94467.84;;;28.71;23.73
21395;BME280;10858;42.714;23.180;2023-05-07T11:51:41;94462.53;;;29.37;24.54
21395;BME280;10858;42.714;23.180;2023-05-07T11:54:08;94470.03;;;29.96;21.96
21395;BME280;10858;42.714;23.180;2023-05-07T11:56:37;94457.78;;;30.20;23.27
21395;BME280;10858;42.714;23.180;2023-05-07T11:59:04;94457.09;;;31.27;21.85
21395;BME280;10858;42.714;23.180;2023-05-07T12:01:30;94459.09;;;31.04;22.06
21395;BME280;10858;42.714;23.180;2023-05-07T12:03:56;94458.56;;;31.34;21.90
21395;BME280;10858;42.714;23.180;2023-05-07T12:06:22;94443.34;;;31.48;22.31
21395;BME280;10858;42.714;23.180;2023-05-07T12:08:49;94445.22;;;32.16;20.87
21395;BME280;10858;42.714;23.180;2023-05-07T12:11:25;94445.53;;;30.66;22.84
21395;BME280;10858;42.714;23.180;2023-05-07T12:13:51;94438.97;;;29.69;23.43
21395;BME280;10858;42.714;23.180;2023-05-07T12:16:19;94436.66;;;30.16;23.15
21395;BME280;10858;42.714;23.180;2023-05-07T12:18:47;94437.31;;;30.45;22.25
21395;BME280;10858;42.714;23.180;2023-05-07T12:21:13;94430.28;;;30.10;22.71
21395;BME280;10858;42.714;23.180;2023-05-07T12:23:40;94425.84;;;28.72;24.70
21395;BME280;10858;42.714;23.180;2023-05-07T12:26:06;94419.44;;;29.77;24.13
21395;BME280;10858;42.714;23.180;2023-05-07T12:28:38;94426.88;;;29.65;24.62
21395;BME280;10858;42.714;23.180;2023-05-07T12:31:05;94423.16;;;29.55;28.62
21395;BME280;10858;42.714;23.180;2023-05-07T12:33:31;94424.19;;;29.32;25.69
21395;BME280;10858;42.714;23.180;2023-05-07T12:36:02;94422.56;;;29.53;23.69
21395;BME280;10858;42.714;23.180;2023-05-07T12:38:39;94411.78;;;29.79;23.70
21395;BME280;10858;42.714;23.180;2023-05-07T12:41:08;94410.41;;;29.98;26.06
21395;BME280;10858;42.714;23.180;2023-05-07T12:43:35;94406.03;;;29.97;24.03
21395;BME280;10858;42.714;23.180;2023-05-07T12:46:06;94404.06;;;30.58;24.64
21395;BME280;10858;42.714;23.180;2023-05-07T12:48:32;94400.06;;;30.92;23.11
21395;BME280;10858;42.714;23.180;2023-05-07T12:51:01;94390.72;;;30.40;23.38
21395;BME280;10858;42.714;23.180;2023-05-07T12:53:30;94389.59;;;30.62;27.45
21395;BME280;10858;42.714;23.180;2023-05-07T12:55:58;94380.34;;;30.95;22.71
21395;BME280;10858;42.714;23.180;2023-05-07T12:58:25;94383.09;;;30.68;23.30
21395;BME280;10858;42.714;23.180;2023-05-07T13:00:53;94390.00;;;30.49;24.02
21395;BME280;10858;42.714;23.180;2023-05-07T13:03:28;94381.78;;;30.28;25.40
21395;BME280;10858;42.714;23.180;2023-05-07T13:05:58;94374.66;;;29.83;22.19
21395;BME280;10858;42.714;23.180;2023-05-07T13:08:26;94375.56;;;29.72;23.14